Capt. Ted — WDD6210 — position and weather

sailwx.info

Track history (hours):
 
Tides and Currents Weather Stations Pressure Air Temp Water Temp Dewpoint Dewpoint Depression Visibility Wind Speed Wind Dir Waves Ship Positions

Capt. Ted

Owner: Salisbury Towing Corporation, Richmond, VA. More information available from US FCC via Universal Licensing System and Coast Guard Vessel Documentation Center.

Last reported at 2018-Apr-23 07:13 UTC. Time now 2018-Apr-23 07:55 UTC.
Position N 38°32' W 075°45'.

Length 32 m; draft 2.8 m.

Type: Tug. MMSI: 367169710.

Date/timePositionNaut miles runAvg speedWind from/ knotsBaromVisibWave heightAir tempDewpointWater temp
2018-Apr-23 07:13N 38°32' W 075°45'1 4.6
2018-Apr-23 07:00N 38°31' W 075°45'2 4.5
2018-Apr-23 06:30N 38°30' W 075°48'2 3.2
2018-Apr-23 06:01N 38°28' W 075°49'2 3.6
2018-Apr-23 05:30N 38°27' W 075°50'1 2.5
2018-Apr-23 05:00N 38°25' W 075°50'2 3.8
2018-Apr-23 04:30N 38°23' W 075°50'37 3.6
2018-Apr-22 18:08N 38°47' W 076°27'1 7.2
2018-Apr-22 18:00N 38°48' W 076°26'3 6.8
2018-Apr-22 17:30N 38°51' W 076°25'3 6.7
2018-Apr-22 17:00N 38°55' W 076°25'3 6.6
2018-Apr-22 16:30N 38°58' W 076°24'3 6.4
2018-Apr-22 16:00N 39°01' W 076°22'3 6.0
2018-Apr-22 15:29N 39°04' W 076°21'3 5.8
2018-Apr-22 15:00N 39°07' W 076°20'3 5.9
2018-Apr-22 14:30N 39°09' W 076°19'3 6.3
2018-Apr-22 14:00N 39°12' W 076°16'13 7.1
2018-Apr-22 12:10N 39°23' W 076°07'1 4.0
2018-Apr-22 12:00N 39°23' W 076°06'4 7.5
2018-Apr-22 11:28N 39°25' W 076°02'3 5.9
2018-Apr-22 10:58N 39°28' W 076°03'3 5.9
2018-Apr-22 10:29N 39°31' W 076°05'2 3.9
2018-Apr-22 10:00N 39°33' W 076°04'2 4.3
2018-Apr-22 09:28N 39°34' W 076°06'2 4.1
2018-Apr-22 09:00N 39°33' W 076°05'4 7.1
2018-Apr-22 08:30N 39°29' W 076°05'4 6.8
2018-Apr-22 07:59N 39°27' W 076°02'3 6.7
2018-Apr-22 07:30N 39°24' W 076°04'6 8.3
2018-Apr-22 06:47N 39°21' W 076°11'2 7.6
2018-Apr-22 06:29N 39°19' W 076°12'4 8.2
2018-Apr-22 06:00N 39°15' W 076°14'4 8.2
2018-Apr-22 05:30N 39°12' W 076°17'4 8.4
2018-Apr-22 05:00N 39°08' W 076°20'4 8.2
2018-Apr-22 04:30N 39°04' W 076°21'4 8.4
2018-Apr-22 04:00N 39°00' W 076°23'4 8.5
2018-Apr-22 03:30N 38°56' W 076°24'4 8.7
2018-Apr-22 03:00N 38°52' W 076°26'4 8.7
2018-Apr-22 02:30N 38°48' W 076°27'  
2018-Apr-18 03:20N 38°46' W 076°28'2 7.8
2018-Apr-18 03:00N 38°48' W 076°28'4 7.9
2018-Apr-18 02:30N 38°52' W 076°26'4 7.9
2018-Apr-18 02:00N 38°56' W 076°25'4 7.3
2018-Apr-18 01:29N 38°59' W 076°23'3 6.6
2018-Apr-18 01:00N 39°02' W 076°23'4 6.7
2018-Apr-18 00:25N 39°06' W 076°24'3 6.6
2018-Apr-17 23:59N 39°09' W 076°25'3 5.6
2018-Apr-17 23:30N 39°12' W 076°24'17 6.4
2018-Apr-17 20:50N 39°23' W 076°07'2 7.4
2018-Apr-17 20:31N 39°24' W 076°04'3 6.7
2018-Apr-17 20:00N 39°27' W 076°02'3 6.9
2018-Apr-17 19:30N 39°29' W 076°05'4 7.1
2018-Apr-17 19:00N 39°33' W 076°05'2 2.1
2018-Apr-17 18:04N 39°34' W 076°06'0 0.0
2018-Apr-17 17:58N 39°34' W 076°06'0 0.0
2018-Apr-17 17:28N 39°34' W 076°06'0 0.1
2018-Apr-17 17:00N 39°34' W 076°06'3 5.1
2018-Apr-17 16:30N 39°32' W 076°05'3 6.7
2018-Apr-17 16:00N 39°29' W 076°04'4 7.0
2018-Apr-17 15:30N 39°25' W 076°02'4 8.0
2018-Apr-17 15:00N 39°23' W 076°06'4 8.8
2018-Apr-17 14:30N 39°20' W 076°11'21 8.2
2018-Apr-17 12:00N 39°02' W 076°22'5 8.7
2018-Apr-17 11:26N 38°57' W 076°25'4 8.5
2018-Apr-17 11:00N 38°54' W 076°26'4 8.6
2018-Apr-17 10:30N 38°49' W 076°27'  
2018-Apr-14 16:44N 39°23' W 076°06'2 7.9
2018-Apr-14 16:30N 39°24' W 076°04'3 6.8
2018-Apr-14 16:00N 39°27' W 076°02'3 7.0
2018-Apr-14 15:30N 39°30' W 076°05'3 6.2
2018-Apr-14 15:00N 39°33' W 076°04'2 4.5
2018-Apr-14 14:30N 39°34' W 076°06'2 4.1
2018-Apr-14 14:00N 39°33' W 076°05'4 7.8
2018-Apr-14 13:30N 39°29' W 076°05'4 7.5
2018-Apr-14 13:00N 39°26' W 076°02'4 8.4
2018-Apr-14 12:30N 39°23' W 076°06'5 9.6
2018-Apr-14 12:00N 39°20' W 076°11'  
Track history (hours):
 
Tides and Currents Weather Stations Pressure Air Temp Water Temp Dewpoint Dewpoint Depression Visibility Wind Speed Wind Dir Waves Ship Positions

Capt. Ted

Owner: Salisbury Towing Corporation, Richmond, VA. More information available from US FCC via Universal Licensing System and Coast Guard Vessel Documentation Center.

Last reported at 2018-Apr-23 07:13 UTC. Time now 2018-Apr-23 07:55 UTC.
Position N 38°32' W 075°45'.

Length 32 m; draft 2.8 m.

Type: Tug. MMSI: 367169710.

Date/timePositionNaut miles runAvg speedWind from/ knotsBaromVisibWave heightAir tempDewpointWater temp
2018-Apr-23 07:13N 38°32' W 075°45'1 4.6
2018-Apr-23 07:00N 38°31' W 075°45'2 4.5
2018-Apr-23 06:30N 38°30' W 075°48'2 3.2
2018-Apr-23 06:01N 38°28' W 075°49'2 3.6
2018-Apr-23 05:30N 38°27' W 075°50'1 2.5
2018-Apr-23 05:00N 38°25' W 075°50'2 3.8
2018-Apr-23 04:30N 38°23' W 075°50'37 3.6
2018-Apr-22 18:08N 38°47' W 076°27'1 7.2
2018-Apr-22 18:00N 38°48' W 076°26'3 6.8
2018-Apr-22 17:30N 38°51' W 076°25'3 6.7
2018-Apr-22 17:00N 38°55' W 076°25'3 6.6
2018-Apr-22 16:30N 38°58' W 076°24'3 6.4
2018-Apr-22 16:00N 39°01' W 076°22'3 6.0
2018-Apr-22 15:29N 39°04' W 076°21'3 5.8
2018-Apr-22 15:00N 39°07' W 076°20'3 5.9
2018-Apr-22 14:30N 39°09' W 076°19'3 6.3
2018-Apr-22 14:00N 39°12' W 076°16'13 7.1
2018-Apr-22 12:10N 39°23' W 076°07'1 4.0
2018-Apr-22 12:00N 39°23' W 076°06'4 7.5
2018-Apr-22 11:28N 39°25' W 076°02'3 5.9
2018-Apr-22 10:58N 39°28' W 076°03'3 5.9
2018-Apr-22 10:29N 39°31' W 076°05'2 3.9
2018-Apr-22 10:00N 39°33' W 076°04'2 4.3
2018-Apr-22 09:28N 39°34' W 076°06'2 4.1
2018-Apr-22 09:00N 39°33' W 076°05'4 7.1
2018-Apr-22 08:30N 39°29' W 076°05'4 6.8
2018-Apr-22 07:59N 39°27' W 076°02'3 6.7
2018-Apr-22 07:30N 39°24' W 076°04'6 8.3
2018-Apr-22 06:47N 39°21' W 076°11'2 7.6
2018-Apr-22 06:29N 39°19' W 076°12'4 8.2
2018-Apr-22 06:00N 39°15' W 076°14'4 8.2
2018-Apr-22 05:30N 39°12' W 076°17'4 8.4
2018-Apr-22 05:00N 39°08' W 076°20'4 8.2
2018-Apr-22 04:30N 39°04' W 076°21'4 8.4
2018-Apr-22 04:00N 39°00' W 076°23'4 8.5
2018-Apr-22 03:30N 38°56' W 076°24'4 8.7
2018-Apr-22 03:00N 38°52' W 076°26'4 8.7
2018-Apr-22 02:30N 38°48' W 076°27'  
2018-Apr-18 03:20N 38°46' W 076°28'2 7.8
2018-Apr-18 03:00N 38°48' W 076°28'4 7.9
2018-Apr-18 02:30N 38°52' W 076°26'4 7.9
2018-Apr-18 02:00N 38°56' W 076°25'4 7.3
2018-Apr-18 01:29N 38°59' W 076°23'3 6.6
2018-Apr-18 01:00N 39°02' W 076°23'4 6.7
2018-Apr-18 00:25N 39°06' W 076°24'3 6.6
2018-Apr-17 23:59N 39°09' W 076°25'3 5.6
2018-Apr-17 23:30N 39°12' W 076°24'17 6.4
2018-Apr-17 20:50N 39°23' W 076°07'2 7.4
2018-Apr-17 20:31N 39°24' W 076°04'3 6.7
2018-Apr-17 20:00N 39°27' W 076°02'3 6.9
2018-Apr-17 19:30N 39°29' W 076°05'4 7.1
2018-Apr-17 19:00N 39°33' W 076°05'2 2.1
2018-Apr-17 18:04N 39°34' W 076°06'0 0.0
2018-Apr-17 17:58N 39°34' W 076°06'0 0.0
2018-Apr-17 17:28N 39°34' W 076°06'0 0.1
2018-Apr-17 17:00N 39°34' W 076°06'3 5.1
2018-Apr-17 16:30N 39°32' W 076°05'3 6.7
2018-Apr-17 16:00N 39°29' W 076°04'4 7.0
2018-Apr-17 15:30N 39°25' W 076°02'4 8.0
2018-Apr-17 15:00N 39°23' W 076°06'4 8.8
2018-Apr-17 14:30N 39°20' W 076°11'21 8.2
2018-Apr-17 12:00N 39°02' W 076°22'5 8.7
2018-Apr-17 11:26N 38°57' W 076°25'4 8.5
2018-Apr-17 11:00N 38°54' W 076°26'4 8.6
2018-Apr-17 10:30N 38°49' W 076°27'  
2018-Apr-14 16:44N 39°23' W 076°06'2 7.9
2018-Apr-14 16:30N 39°24' W 076°04'3 6.8
2018-Apr-14 16:00N 39°27' W 076°02'3 7.0
2018-Apr-14 15:30N 39°30' W 076°05'3 6.2
2018-Apr-14 15:00N 39°33' W 076°04'2 4.5
2018-Apr-14 14:30N 39°34' W 076°06'2 4.1
2018-Apr-14 14:00N 39°33' W 076°05'4 7.8
2018-Apr-14 13:30N 39°29' W 076°05'4 7.5
2018-Apr-14 13:00N 39°26' W 076°02'4 8.4
2018-Apr-14 12:30N 39°23' W 076°06'5 9.6
2018-Apr-14 12:00N 39°20' W 076°11'  

Dump ship's entire track history